createdAt,value
2022-11-25T00:01:22.565Z,18.17
2022-11-25T00:03:50.028Z,19.40
2022-11-25T00:06:20.536Z,23.53
2022-11-25T00:08:49.577Z,17.27
2022-11-25T00:11:17.291Z,21.47
2022-11-25T00:13:45.015Z,19.00
2022-11-25T00:16:14.847Z,19.80
2022-11-25T00:18:45.109Z,21.70
2022-11-25T00:21:15.212Z,18.07
2022-11-25T00:23:42.061Z,20.60
2022-11-25T00:26:13.891Z,23.30
2022-11-25T00:28:45.421Z,22.20
2022-11-25T00:31:18.833Z,25.90
2022-11-25T00:33:46.000Z,23.17
2022-11-25T00:36:21.798Z,28.17
2022-11-25T00:38:48.436Z,25.50
2022-11-25T00:41:33.393Z,25.13
2022-11-25T00:44:18.244Z,26.13
2022-11-25T00:46:44.763Z,22.97
2022-11-25T00:49:11.348Z,26.50
2022-11-25T00:51:37.932Z,30.93
2022-11-25T00:54:04.680Z,25.20
2022-11-25T00:56:31.174Z,21.43
2022-11-25T00:58:57.845Z,25.00
2022-11-25T01:01:25.011Z,30.43
2022-11-25T01:03:52.995Z,26.97
2022-11-25T01:06:19.863Z,24.83
2022-11-25T01:08:46.376Z,28.00
2022-11-25T01:11:15.000Z,26.00
2022-11-25T01:13:42.098Z,25.63
2022-11-25T01:16:15.857Z,23.50
2022-11-25T01:18:43.230Z,27.07
2022-11-25T01:21:13.665Z,26.03
2022-11-25T01:23:41.309Z,27.37
2022-11-25T01:26:13.436Z,24.07
2022-11-25T01:28:40.244Z,26.47
2022-11-25T01:31:12.919Z,24.17
2022-11-25T01:33:39.537Z,24.90
2022-11-25T01:36:09.146Z,24.43
2022-11-25T01:38:36.204Z,22.67
2022-11-25T01:41:05.693Z,23.40
2022-11-25T01:43:32.246Z,25.77
2022-11-25T01:46:04.495Z,20.93
2022-11-25T01:48:57.252Z,20.87
2022-11-25T01:51:34.982Z,24.53
2022-11-25T01:54:06.482Z,23.23
2022-11-25T01:56:41.391Z,25.37
2022-11-25T01:59:07.941Z,22.73
2022-11-25T02:01:34.877Z,21.17
2022-11-25T02:04:02.180Z,23.63
2022-11-25T02:06:38.936Z,24.33
2022-11-25T02:09:07.999Z,20.77
2022-11-25T02:11:39.057Z,23.63
2022-11-25T02:14:06.944Z,20.27
2022-11-25T02:16:33.615Z,21.10
2022-11-25T02:19:00.841Z,20.07
2022-11-25T02:21:45.367Z,22.00
2022-11-25T02:24:43.211Z,20.93
2022-11-25T02:27:09.752Z,18.83
2022-11-25T02:29:37.439Z,16.53
2022-11-25T02:32:04.272Z,22.37
2022-11-25T02:34:30.862Z,22.93
2022-11-25T02:36:57.917Z,19.47
2022-11-25T02:39:24.700Z,21.50
2022-11-25T02:41:55.355Z,20.03
2022-11-25T02:44:21.863Z,20.30
2022-11-25T02:46:48.412Z,20.87
2022-11-25T02:49:14.904Z,22.50
2022-11-25T02:51:44.817Z,21.70
2022-11-25T02:54:15.931Z,20.10
2022-11-25T02:56:43.379Z,22.43
2022-11-25T02:59:11.202Z,21.47
2022-11-25T03:01:38.634Z,21.80
2022-11-25T03:04:05.912Z,23.27
2022-11-25T03:06:32.956Z,22.33
2022-11-25T03:08:59.484Z,25.07
2022-11-25T03:11:46.034Z,21.70
2022-11-25T03:14:12.704Z,21.07
2022-11-25T03:16:39.399Z,23.67
2022-11-25T03:19:06.100Z,22.07
2022-11-25T03:21:32.689Z,25.03
2022-11-25T03:23:59.179Z,22.57
2022-11-25T03:26:27.270Z,27.03
2022-11-25T03:28:53.750Z,23.60
2022-11-25T03:31:20.343Z,21.57
2022-11-25T03:33:46.921Z,20.83
2022-11-25T03:36:13.440Z,22.17
2022-11-25T03:38:40.042Z,23.63
2022-11-25T03:41:06.970Z,21.27
2022-11-25T03:43:35.542Z,21.67
2022-11-25T03:46:02.256Z,19.23
2022-11-25T03:48:28.865Z,21.40
2022-11-25T03:50:55.731Z,21.87
2022-11-25T03:53:22.253Z,22.57
2022-11-25T03:55:48.751Z,19.20
2022-11-25T03:58:15.284Z,22.03
2022-11-25T04:00:41.780Z,20.70
2022-11-25T04:03:08.398Z,19.97
2022-11-25T04:05:35.012Z,24.57
2022-11-25T04:08:01.603Z,20.10
2022-11-25T04:10:28.124Z,19.83
2022-11-25T04:12:54.889Z,23.50
2022-11-25T04:15:21.739Z,20.83
2022-11-25T04:17:48.375Z,24.73
2022-11-25T04:20:15.550Z,28.87
2022-11-25T04:22:42.568Z,25.47
2022-11-25T04:25:09.872Z,20.07
2022-11-25T04:27:36.585Z,21.10
2022-11-25T04:30:03.670Z,24.50
2022-11-25T04:32:30.240Z,23.30
2022-11-25T04:34:56.779Z,25.43
2022-11-25T04:37:23.366Z,22.80
2022-11-25T04:39:50.131Z,23.47
2022-11-25T04:42:31.748Z,26.57
2022-11-25T04:45:22.093Z,25.23
2022-11-25T04:47:48.964Z,25.33
2022-11-25T04:50:18.764Z,27.97
2022-11-25T04:52:45.356Z,22.73
2022-11-25T04:55:11.944Z,23.87
2022-11-25T04:57:38.488Z,25.13
2022-11-25T05:00:06.465Z,27.27
2022-11-25T05:02:33.145Z,23.23
2022-11-25T05:04:59.716Z,21.97
2022-11-25T05:07:28.032Z,26.13
2022-11-25T05:09:55.057Z,24.93
2022-11-25T05:12:24.469Z,23.10
2022-11-25T05:14:51.096Z,21.60
2022-11-25T05:17:20.305Z,24.37
2022-11-25T05:19:47.176Z,23.00
2022-11-25T05:22:16.301Z,23.90
2022-11-25T05:24:43.214Z,22.90
2022-11-25T05:27:10.298Z,31.07
2022-11-25T05:29:37.928Z,23.73
2022-11-25T05:32:05.900Z,21.10
2022-11-25T05:34:32.431Z,24.63
2022-11-25T05:36:58.962Z,24.97
2022-11-25T05:39:25.942Z,21.27
2022-11-25T05:41:52.702Z,22.27
2022-11-25T05:44:22.861Z,21.70
2022-11-25T05:46:49.711Z,25.90
2022-11-25T05:49:17.596Z,20.73
2022-11-25T05:51:44.806Z,26.73
2022-11-25T05:54:11.501Z,23.50
2022-11-25T05:56:38.351Z,20.03
2022-11-25T05:59:05.515Z,29.70
2022-11-25T06:01:34.765Z,23.47
2022-11-25T06:04:03.034Z,21.07
2022-11-25T06:06:30.633Z,24.90
2022-11-25T06:08:57.206Z,18.60
2022-11-25T06:11:25.496Z,23.90
2022-11-25T06:13:52.190Z,26.77
2022-11-25T06:16:21.587Z,19.67
2022-11-25T06:18:48.529Z,19.67
2022-11-25T06:21:16.780Z,21.00
2022-11-25T06:23:45.581Z,21.23
2022-11-25T06:26:22.539Z,22.80
2022-11-25T06:28:53.582Z,24.10
2022-11-25T06:31:23.657Z,19.40
2022-11-25T06:33:51.814Z,21.13
2022-11-25T06:36:20.465Z,22.97
2022-11-25T06:38:49.761Z,24.57
2022-11-25T06:41:16.699Z,19.07
2022-11-25T06:43:43.466Z,22.13
2022-11-25T06:46:23.023Z,20.83
2022-11-25T06:48:51.360Z,18.07
2022-11-25T06:51:18.230Z,20.07
2022-11-25T06:53:45.962Z,21.43
2022-11-25T06:56:15.648Z,20.13
2022-11-25T06:58:43.397Z,19.87
2022-11-25T07:01:22.557Z,24.27
2022-11-25T07:03:52.883Z,19.17
2022-11-25T07:06:21.060Z,18.07
2022-11-25T07:08:48.578Z,16.27
2022-11-25T07:11:19.348Z,19.87
2022-11-25T07:13:46.594Z,19.17
2022-11-25T07:16:13.865Z,22.37
2022-11-25T07:18:41.251Z,19.37
2022-11-25T07:21:13.049Z,19.43
2022-11-25T07:23:40.252Z,16.90
2022-11-25T07:26:10.811Z,18.30
2022-11-25T07:28:38.132Z,27.93
2022-11-25T07:31:32.834Z,19.17
2022-11-25T07:34:03.346Z,21.10
2022-11-25T07:36:31.850Z,21.80
2022-11-25T07:39:00.885Z,16.17
2022-11-25T07:41:28.489Z,19.13
2022-11-25T07:44:00.287Z,18.47
2022-11-25T07:46:38.645Z,20.43
2022-11-25T07:49:08.444Z,21.30
2022-11-25T07:51:40.574Z,21.60
2022-11-25T07:54:10.988Z,18.30
2022-11-25T07:56:39.468Z,15.37
2022-11-25T07:59:07.700Z,15.83
2022-11-25T08:01:36.329Z,18.73
2022-11-25T08:04:02.980Z,15.47
2022-11-25T08:06:30.243Z,18.27
2022-11-25T08:08:58.302Z,16.80
2022-11-25T08:11:30.294Z,14.03
2022-11-25T08:13:57.456Z,20.23
2022-11-25T08:16:27.462Z,22.80
2022-11-25T08:18:58.792Z,19.23
2022-11-25T08:21:25.824Z,19.73
2022-11-25T08:23:53.156Z,20.73
2022-11-25T08:26:31.820Z,17.67
2022-11-25T08:28:59.554Z,17.87
2022-11-25T08:31:31.574Z,19.93
2022-11-25T08:33:58.471Z,17.17
2022-11-25T08:36:26.435Z,13.80
2022-11-25T08:38:57.573Z,16.87
2022-11-25T08:41:30.936Z,14.43
2022-11-25T08:43:59.814Z,13.40
2022-11-25T08:46:29.564Z,17.70
2022-11-25T08:48:56.578Z,16.03
2022-11-25T08:51:28.753Z,19.37
2022-11-25T08:53:55.343Z,19.07
2022-11-25T08:56:26.184Z,14.17
2022-11-25T08:58:56.244Z,15.83
2022-11-25T09:01:25.060Z,18.23
2022-11-25T09:03:55.608Z,12.40
2022-11-25T09:06:23.994Z,17.30
2022-11-25T09:08:51.131Z,15.53
2022-11-25T09:11:20.796Z,13.37
2022-11-25T09:13:47.381Z,15.00
2022-11-25T09:16:15.261Z,14.73
2022-11-25T09:18:42.220Z,15.20
2022-11-25T09:21:14.543Z,14.13
2022-11-25T09:23:41.130Z,13.40
2022-11-25T09:26:08.339Z,15.70
2022-11-25T09:28:36.918Z,17.17
2022-11-25T09:31:08.048Z,17.47
2022-11-25T09:33:34.827Z,15.83
2022-11-25T09:36:02.861Z,14.97
2022-11-25T09:38:29.630Z,13.43
2022-11-25T09:41:13.626Z,12.83
2022-11-25T09:44:20.760Z,13.17
2022-11-25T09:46:51.345Z,12.40
2022-11-25T09:49:26.605Z,17.57
2022-11-25T09:52:14.483Z,17.53
2022-11-25T09:54:55.728Z,18.63
2022-11-25T09:57:35.215Z,16.33
2022-11-25T10:00:12.930Z,12.03
2022-11-25T10:03:17.098Z,15.47
2022-11-25T10:06:02.178Z,17.90
2022-11-25T10:08:35.459Z,16.70
2022-11-25T10:11:14.611Z,14.87
2022-11-25T10:13:57.213Z,16.97
2022-11-25T10:16:26.893Z,14.53
2022-11-25T10:19:00.835Z,18.00
2022-11-25T10:21:28.374Z,15.00
2022-11-25T10:23:55.314Z,15.60
2022-11-25T10:26:27.284Z,19.53
2022-11-25T10:28:57.473Z,13.57
2022-11-25T10:31:36.873Z,15.00
2022-11-25T10:34:33.402Z,17.40
2022-11-25T10:37:02.469Z,15.93
2022-11-25T10:39:31.775Z,16.00
2022-11-25T10:42:08.276Z,17.10
2022-11-25T10:44:37.945Z,17.77
2022-11-25T10:47:16.661Z,14.80
2022-11-25T10:49:51.241Z,15.27
2022-11-25T10:52:23.357Z,19.20
2022-11-25T10:54:58.339Z,15.80
2022-11-25T10:57:29.778Z,16.00
2022-11-25T10:59:58.800Z,18.97
2022-11-25T11:02:35.454Z,15.87
2022-11-25T11:05:18.357Z,14.67
2022-11-25T11:07:46.838Z,20.90
2022-11-25T11:10:19.430Z,18.37
2022-11-25T11:13:02.657Z,15.53
2022-11-25T11:15:44.536Z,17.53
2022-11-25T11:18:24.492Z,18.27
2022-11-25T11:21:00.535Z,18.70
2022-11-25T11:23:29.038Z,19.40
2022-11-25T11:26:09.762Z,22.10
2022-11-25T11:28:37.217Z,17.87
2022-11-25T11:31:18.389Z,16.03
2022-11-25T11:33:47.599Z,17.10
2022-11-25T11:36:31.214Z,17.40
2022-11-25T11:39:35.963Z,19.03
2022-11-25T11:42:24.314Z,19.63
2022-11-25T11:45:02.888Z,18.00
2022-11-25T11:47:34.293Z,14.30
2022-11-25T11:50:27.440Z,19.80
2022-11-25T11:53:10.837Z,19.87
2022-11-25T11:56:05.645Z,15.53
2022-11-25T11:58:35.733Z,23.27
2022-11-25T12:01:24.027Z,21.77
2022-11-25T12:04:28.580Z,18.70
2022-11-25T12:07:38.696Z,18.00
2022-11-25T12:10:10.527Z,22.73
2022-11-25T12:13:13.727Z,15.90
2022-11-25T12:15:45.875Z,16.53
2022-11-25T12:18:38.936Z,17.13
2022-11-25T12:21:13.957Z,15.27
2022-11-25T12:24:04.415Z,14.63
2022-11-25T12:26:40.809Z,18.70
2022-11-25T12:29:13.630Z,17.17
2022-11-25T12:31:50.377Z,15.60
2022-11-25T12:34:24.383Z,15.17
2022-11-25T12:37:08.391Z,16.90
2022-11-25T12:39:45.994Z,17.37
2022-11-25T12:42:22.682Z,17.43
2022-11-25T12:45:07.182Z,19.57
2022-11-25T12:47:33.761Z,14.93
2022-11-25T12:50:00.730Z,16.73
2022-11-25T12:52:36.551Z,15.73
2022-11-25T12:55:03.044Z,13.33
2022-11-25T12:57:49.359Z,16.10
2022-11-25T13:00:41.446Z,17.13
2022-11-25T13:03:48.628Z,20.30
2022-11-25T13:06:34.713Z,16.47
2022-11-25T13:09:14.728Z,18.93
2022-11-25T13:12:00.595Z,15.73
2022-11-25T13:14:52.599Z,15.87
2022-11-25T13:17:20.673Z,15.03
2022-11-25T13:19:47.598Z,15.17
2022-11-25T13:22:29.967Z,15.57
2022-11-25T13:24:59.590Z,19.73
2022-11-25T13:27:53.572Z,15.50
2022-11-25T13:30:32.317Z,16.53
2022-11-25T13:33:13.943Z,15.80
2022-11-25T13:36:01.315Z,15.93
2022-11-25T13:38:30.591Z,15.83
2022-11-25T13:41:21.689Z,16.77
2022-11-25T13:44:28.484Z,16.20
2022-11-25T13:46:58.323Z,16.90
2022-11-25T13:50:22.061Z,17.40
2022-11-25T13:53:01.727Z,12.93
2022-11-25T13:55:35.712Z,16.77
2022-11-25T13:58:07.578Z,17.03
2022-11-25T14:01:10.658Z,19.57
2022-11-25T14:03:46.010Z,15.87
2022-11-25T14:06:50.975Z,15.33
2022-11-25T14:09:25.218Z,13.87
2022-11-25T14:12:30.566Z,16.40
2022-11-25T14:15:30.146Z,16.40
2022-11-25T14:19:03.241Z,16.60
2022-11-25T14:21:24.225Z,15.70
2022-11-25T14:24:03.152Z,25.20
2022-11-25T14:26:49.616Z,27.83
2022-11-25T14:29:32.150Z,20.60
2022-11-25T14:32:14.865Z,20.73
2022-11-25T14:34:50.154Z,17.83
2022-11-25T14:37:22.872Z,21.20
2022-11-25T14:39:52.689Z,17.03
2022-11-25T14:42:22.609Z,19.37
2022-11-25T14:44:58.484Z,19.80
2022-11-25T14:47:27.464Z,19.03
2022-11-25T14:50:33.623Z,18.37
2022-11-25T14:52:47.601Z,18.13
2022-11-25T14:55:24.575Z,21.07
2022-11-25T14:57:52.642Z,23.13
2022-11-25T15:00:19.599Z,21.77
2022-11-25T15:03:17.980Z,22.67
2022-11-25T15:05:44.586Z,18.03
2022-11-25T15:08:16.009Z,18.90
2022-11-25T15:11:00.943Z,16.60
2022-11-25T15:13:39.300Z,17.30
2022-11-25T15:16:18.932Z,16.27
2022-11-25T15:19:00.489Z,16.13
2022-11-25T15:21:30.659Z,21.37
2022-11-25T15:23:57.772Z,20.37
2022-11-25T15:26:29.179Z,18.80
2022-11-25T15:29:00.213Z,19.93
2022-11-25T15:31:33.105Z,23.77
2022-11-25T15:34:02.550Z,17.37
2022-11-25T15:36:29.575Z,21.83
2022-11-25T15:39:14.098Z,23.47
2022-11-25T15:41:43.383Z,21.47
2022-11-25T15:44:19.482Z,21.00
2022-11-25T15:47:02.841Z,19.33
2022-11-25T15:49:30.066Z,19.43
2022-11-25T15:52:06.240Z,19.90
2022-11-25T15:55:03.281Z,20.80
2022-11-25T15:57:34.348Z,19.70
2022-11-25T16:00:00.832Z,18.70
2022-11-25T16:02:38.327Z,22.20
2022-11-25T16:05:16.659Z,19.37
2022-11-25T16:07:55.078Z,20.93
2022-11-25T16:10:50.164Z,20.13
2022-11-25T16:13:23.153Z,20.67
2022-11-25T16:15:49.775Z,18.00
2022-11-25T16:18:39.300Z,19.63
2022-11-25T16:21:09.417Z,18.30
2022-11-25T16:23:39.012Z,17.50
2022-11-25T16:26:11.392Z,18.23
2022-11-25T16:28:39.604Z,17.13
2022-11-25T16:31:06.085Z,17.03
2022-11-25T16:33:32.593Z,18.73
2022-11-25T16:35:59.202Z,21.63
2022-11-25T16:38:26.839Z,18.23
2022-11-25T16:40:53.885Z,23.50
2022-11-25T16:43:24.395Z,18.43
2022-11-25T16:45:53.374Z,17.93
2022-11-25T16:48:22.829Z,22.20
2022-11-25T16:50:51.065Z,21.17
2022-11-25T16:53:18.212Z,17.47
2022-11-25T16:55:46.692Z,18.83
2022-11-25T16:58:18.786Z,17.23
2022-11-25T17:00:51.185Z,17.60
2022-11-25T17:03:19.407Z,19.03
2022-11-25T17:05:46.983Z,15.03
2022-11-25T17:08:14.260Z,14.43
2022-11-25T17:10:43.334Z,15.77
2022-11-25T17:13:18.005Z,15.90
2022-11-25T17:15:46.018Z,15.90
2022-11-25T17:18:17.247Z,14.67
2022-11-25T17:20:44.988Z,17.83
2022-11-25T17:23:16.874Z,20.47
2022-11-25T17:25:47.274Z,22.27
2022-11-25T17:28:17.399Z,19.17
2022-11-25T17:30:45.107Z,22.13
2022-11-25T17:33:16.023Z,16.13
2022-11-25T17:35:43.733Z,22.73
2022-11-25T17:38:17.088Z,19.60
2022-11-25T17:40:43.981Z,22.23
2022-11-25T17:43:15.486Z,20.40
2022-11-25T17:45:43.811Z,23.87
2022-11-25T17:48:12.513Z,23.37
2022-11-25T17:50:39.104Z,24.67
2022-11-25T17:53:05.928Z,25.30
2022-11-25T17:55:33.339Z,30.70
2022-11-25T17:58:00.802Z,23.93
2022-11-25T18:00:27.522Z,25.30
2022-11-25T18:02:54.200Z,24.07
2022-11-25T18:05:25.233Z,28.17
2022-11-25T18:07:52.439Z,28.77
2022-11-25T18:10:26.465Z,22.10
2022-11-25T18:12:54.986Z,24.47
2022-11-25T18:15:25.030Z,29.90
2022-11-25T18:17:55.762Z,27.83
2022-11-25T18:20:26.176Z,24.30
2022-11-25T18:22:53.560Z,25.50
2022-11-25T18:25:24.867Z,27.73
2022-11-25T18:27:56.236Z,30.03
2022-11-25T18:30:31.075Z,25.73
2022-11-25T18:32:58.308Z,32.77
2022-11-25T18:35:32.561Z,32.90
2022-11-25T18:38:02.155Z,27.63
2022-11-25T18:40:29.640Z,30.87
2022-11-25T18:43:00.323Z,29.00
2022-11-25T18:45:37.428Z,30.23
2022-11-25T18:48:14.817Z,31.83
2022-11-25T18:50:41.681Z,29.57
2022-11-25T18:53:08.176Z,32.70
2022-11-25T18:55:34.772Z,31.00
2022-11-25T18:58:02.514Z,34.97
2022-11-25T19:00:32.814Z,31.03
2022-11-25T19:03:00.050Z,32.67
2022-11-25T19:05:31.137Z,34.43
2022-11-25T19:07:58.300Z,31.63
2022-11-25T19:10:28.478Z,33.27
2022-11-25T19:13:01.676Z,24.30
2022-11-25T19:15:28.486Z,29.77
2022-11-25T19:18:00.694Z,27.37
2022-11-25T19:20:28.575Z,28.20
2022-11-25T19:23:00.316Z,27.60
2022-11-25T19:25:27.627Z,29.87
2022-11-25T19:27:57.525Z,32.80
2022-11-25T19:30:27.800Z,30.30
2022-11-25T19:32:58.032Z,25.53
2022-11-25T19:35:32.147Z,25.83
2022-11-25T19:37:58.733Z,30.83
2022-11-25T19:40:25.666Z,28.50
2022-11-25T19:42:52.888Z,27.47
2022-11-25T19:45:21.661Z,32.17
2022-11-25T19:47:52.865Z,32.33
2022-11-25T19:50:24.842Z,28.33
2022-11-25T19:52:52.438Z,33.13
2022-11-25T19:55:24.484Z,25.00
2022-11-25T19:57:53.148Z,31.63
2022-11-25T20:00:22.160Z,34.87
2022-11-25T20:02:51.790Z,31.60
2022-11-25T20:05:31.404Z,28.13
2022-11-25T20:07:58.359Z,23.23
2022-11-25T20:10:28.488Z,24.63
2022-11-25T20:12:57.438Z,25.57
2022-11-25T20:15:26.565Z,22.70
2022-11-25T20:18:00.369Z,23.47
2022-11-25T20:20:41.031Z,23.00
2022-11-25T20:23:20.696Z,20.67
2022-11-25T20:25:49.401Z,19.83
2022-11-25T20:28:18.932Z,19.53
2022-11-25T20:30:46.980Z,21.17
2022-11-25T20:33:13.945Z,26.53
2022-11-25T20:35:42.910Z,24.23
2022-11-25T20:38:21.510Z,22.10
2022-11-25T20:40:51.785Z,22.97
2022-11-25T20:43:24.483Z,22.70
2022-11-25T20:45:51.544Z,23.37
2022-11-25T20:48:18.608Z,20.97
2022-11-25T20:50:45.359Z,19.13
2022-11-25T20:53:16.859Z,17.53
2022-11-25T20:55:44.416Z,21.03
2022-11-25T20:58:32.253Z,20.87
2022-11-25T21:00:58.976Z,23.50
2022-11-25T21:03:26.855Z,23.63
2022-11-25T21:05:55.827Z,23.80
2022-11-25T21:08:28.882Z,20.03
2022-11-25T21:10:57.428Z,23.43
2022-11-25T21:13:26.749Z,17.80
2022-11-25T21:15:53.998Z,25.77
2022-11-25T21:18:21.783Z,20.73
2022-11-25T21:20:51.659Z,24.13
2022-11-25T21:23:24.218Z,21.50
2022-11-25T21:25:51.880Z,27.07
2022-11-25T21:28:21.389Z,17.33
2022-11-25T21:30:48.550Z,23.63
2022-11-25T21:33:16.319Z,19.27
2022-11-25T21:35:46.960Z,20.03
2022-11-25T21:38:19.199Z,18.97
2022-11-25T21:40:48.233Z,26.97
2022-11-25T21:43:21.439Z,19.00
2022-11-25T21:45:53.152Z,19.70
2022-11-25T21:48:25.457Z,20.47
2022-11-25T21:50:52.867Z,18.00
2022-11-25T21:53:19.916Z,19.20
2022-11-25T21:55:47.459Z,20.50
2022-11-25T21:58:25.622Z,18.37
2022-11-25T22:00:55.878Z,21.97
2022-11-25T22:03:25.015Z,14.87
2022-11-25T22:05:52.324Z,16.90
2022-11-25T22:08:18.980Z,12.20
2022-11-25T22:10:49.313Z,14.33
2022-11-25T22:13:20.438Z,13.83
2022-11-25T22:15:49.943Z,15.17
2022-11-25T22:18:41.506Z,9.30
2022-11-25T22:21:11.985Z,15.03
2022-11-25T22:23:38.562Z,11.97
2022-11-25T22:26:05.625Z,11.97
2022-11-25T22:28:32.310Z,10.43
2022-11-25T22:31:02.608Z,13.03
2022-11-25T22:33:32.144Z,10.23
2022-11-25T22:35:58.857Z,12.40
2022-11-25T22:38:26.903Z,7.00
2022-11-25T22:40:58.352Z,9.33
2022-11-25T22:43:29.737Z,9.60
2022-11-25T22:45:57.349Z,7.77
2022-11-25T22:48:32.275Z,8.40
2022-11-25T22:50:59.070Z,8.50
2022-11-25T22:53:26.213Z,10.90
2022-11-25T22:55:56.858Z,7.97
2022-11-25T22:58:24.623Z,8.50
2022-11-25T23:00:52.432Z,9.13
2022-11-25T23:03:26.608Z,7.50
2022-11-25T23:05:54.403Z,8.97
2022-11-25T23:08:25.686Z,9.43
2022-11-25T23:10:52.857Z,11.47
2022-11-25T23:13:20.573Z,7.53
2022-11-25T23:15:53.684Z,9.13
2022-11-25T23:18:26.373Z,10.23
2022-11-25T23:20:53.066Z,10.37
2022-11-25T23:23:23.183Z,11.00
2022-11-25T23:25:49.951Z,10.93
2022-11-25T23:28:17.232Z,11.20
2022-11-25T23:30:50.202Z,12.93
2022-11-25T23:33:37.896Z,8.80
2022-11-25T23:36:09.048Z,9.10
2022-11-25T23:38:43.977Z,11.40
2022-11-25T23:41:24.181Z,11.20
2022-11-25T23:43:51.571Z,10.57
2022-11-25T23:46:21.527Z,11.23
2022-11-25T23:48:56.605Z,18.50
2022-11-25T23:51:24.614Z,14.30
2022-11-25T23:53:51.736Z,16.10
2022-11-25T23:56:19.164Z,10.93
2022-11-25T23:58:45.792Z,11.60
